sensor_id;sensor_type;location;lat;lon;timestamp;pressure;altitude;pressure_sealevel;temperature;humidity
17254;BME280;32542;52.832;13.816;2023-06-22T00:01:23;101843.88;;;25.04;56.11
17254;BME280;32542;52.832;13.816;2023-06-22T00:04:27;101833.25;;;25.02;56.03
17254;BME280;32542;52.832;13.816;2023-06-22T00:07:29;101830.56;;;25.02;56.04
17254;BME280;32542;52.832;13.816;2023-06-22T00:10:32;101823.47;;;25.01;56.22
17254;BME280;32542;52.832;13.816;2023-06-22T00:13:35;101834.19;;;25.01;56.20
17254;BME280;32542;52.832;13.816;2023-06-22T00:16:40;101830.63;;;25.01;56.22
17254;BME280;32542;52.832;13.816;2023-06-22T00:19:46;101841.44;;;24.99;56.01
17254;BME280;32542;52.832;13.816;2023-06-22T00:22:55;101845.06;;;24.98;56.19
17254;BME280;32542;52.832;13.816;2023-06-22T00:25:58;101852.22;;;24.98;56.32
17254;BME280;32542;52.832;13.816;2023-06-22T00:29:01;101840.63;;;24.97;56.23
17254;BME280;32542;52.832;13.816;2023-06-22T00:32:06;101847.78;;;24.97;56.13
17254;BME280;32542;52.832;13.816;2023-06-22T00:35:09;101852.28;;;24.96;56.03
17254;BME280;32542;52.832;13.816;2023-06-22T00:38:13;101867.44;;;24.97;56.02
17254;BME280;32542;52.832;13.816;2023-06-22T00:41:16;101857.66;;;24.96;55.89
17254;BME280;32542;52.832;13.816;2023-06-22T00:44:19;101862.16;;;24.96;56.17
17254;BME280;32542;52.832;13.816;2023-06-22T00:47:24;101870.25;;;24.94;55.90
17254;BME280;32542;52.832;13.816;2023-06-22T00:50:28;101864.88;;;24.94;55.94
17254;BME280;32542;52.832;13.816;2023-06-22T00:53:34;101870.25;;;24.94;55.94
17254;BME280;32542;52.832;13.816;2023-06-22T00:56:39;101870.34;;;24.93;55.77
17254;BME280;32542;52.832;13.816;2023-06-22T00:59:44;101880.13;;;24.94;56.06
17254;BME280;32542;52.832;13.816;2023-06-22T01:02:48;101881.06;;;24.93;56.04
17254;BME280;32542;52.832;13.816;2023-06-22T01:05:55;101877.50;;;24.92;55.86
17254;BME280;32542;52.832;13.816;2023-06-22T01:09:06;101871.22;;;24.93;55.92
17254;BME280;32542;52.832;13.816;2023-06-22T01:12:13;101868.53;;;24.93;55.79
17254;BME280;32542;52.832;13.816;2023-06-22T01:15:21;101869.44;;;24.92;56.00
17254;BME280;32542;52.832;13.816;2023-06-22T01:18:29;101871.28;;;24.92;56.08
17254;BME280;32542;52.832;13.816;2023-06-22T01:21:34;101874.91;;;24.91;56.01
17254;BME280;32542;52.832;13.816;2023-06-22T01:24:55;101882.06;;;24.90;56.28
17254;BME280;32542;52.832;13.816;2023-06-22T01:28:05;101879.38;;;24.90;56.11
17254;BME280;32542;52.832;13.816;2023-06-22T01:31:19;101888.38;;;24.89;55.87
17254;BME280;32542;52.832;13.816;2023-06-22T01:34:23;101883.03;;;24.89;55.90
17254;BME280;32542;52.832;13.816;2023-06-22T01:37:27;101888.38;;;24.89;55.97
17254;BME280;32542;52.832;13.816;2023-06-22T01:40:33;101880.41;;;24.88;55.90
17254;BME280;32542;52.832;13.816;2023-06-22T01:43:38;101888.47;;;24.88;55.93
17254;BME280;32542;52.832;13.816;2023-06-22T01:46:43;101891.97;;;24.88;56.04
17254;BME280;32542;52.832;13.816;2023-06-22T01:49:48;101885.84;;;24.86;55.93
17254;BME280;32542;52.832;13.816;2023-06-22T01:52:55;101898.31;;;24.87;56.08
17254;BME280;32542;52.832;13.816;2023-06-22T01:56:00;101899.22;;;24.86;56.06
17254;BME280;32542;52.832;13.816;2023-06-22T01:59:09;101899.22;;;24.86;55.96
17254;BME280;32542;52.832;13.816;2023-06-22T02:02:16;101899.22;;;24.86;56.05
17254;BME280;32542;52.832;13.816;2023-06-22T02:05:23;101898.34;;;24.86;56.06
17254;BME280;32542;52.832;13.816;2023-06-22T02:08:30;101898.34;;;24.86;56.24
17254;BME280;32542;52.832;13.816;2023-06-22T02:11:35;101898.44;;;24.84;56.18
17254;BME280;32542;52.832;13.816;2023-06-22T02:14:38;101905.59;;;24.84;55.80
17254;BME280;32542;52.832;13.816;2023-06-22T02:17:44;101910.09;;;24.83;55.94
17254;BME280;32542;52.832;13.816;2023-06-22T02:20:47;101903.88;;;24.83;55.87
17254;BME280;32542;52.832;13.816;2023-06-22T02:23:50;101903.97;;;24.81;55.93
17254;BME280;32542;52.832;13.816;2023-06-22T02:26:53;101914.69;;;24.81;55.58
17254;BME280;32542;52.832;13.816;2023-06-22T02:29:56;101906.63;;;24.81;55.63
17254;BME280;32542;52.832;13.816;2023-06-22T02:33:00;101913.88;;;24.79;55.61
17254;BME280;32542;52.832;13.816;2023-06-22T02:36:04;101913.88;;;24.79;55.48
17254;BME280;32542;52.832;13.816;2023-06-22T02:39:10;101916.59;;;24.77;55.66
17254;BME280;32542;52.832;13.816;2023-06-22T02:42:13;101908.56;;;24.77;55.66
17254;BME280;32542;52.832;13.816;2023-06-22T02:45:16;101912.19;;;24.76;55.72
17254;BME280;32542;52.832;13.816;2023-06-22T02:48:21;101911.31;;;24.76;55.68
17254;BME280;32542;52.832;13.816;2023-06-22T02:51:24;101906.03;;;24.74;55.36
17254;BME280;32542;52.832;13.816;2023-06-22T02:54:27;101910.53;;;24.74;55.21
17254;BME280;32542;52.832;13.816;2023-06-22T02:57:30;101914.97;;;24.73;55.33
17254;BME280;32542;52.832;13.816;2023-06-22T03:00:33;101914.09;;;24.73;55.23
17254;BME280;32542;52.832;13.816;2023-06-22T03:03:37;101922.13;;;24.73;55.32
17254;BME280;32542;52.832;13.816;2023-06-22T03:06:40;101924.81;;;24.73;55.51
17254;BME280;32542;52.832;13.816;2023-06-22T03:09:43;101923.09;;;24.72;55.36
17254;BME280;32542;52.832;13.816;2023-06-22T03:12:47;101928.44;;;24.72;55.49
17254;BME280;32542;52.832;13.816;2023-06-22T03:15:50;101931.22;;;24.70;55.55
17254;BME280;32542;52.832;13.816;2023-06-22T03:18:54;101932.06;;;24.71;55.39
17254;BME280;32542;52.832;13.816;2023-06-22T03:21:57;101931.25;;;24.69;55.37
17254;BME280;32542;52.832;13.816;2023-06-22T03:25:00;101926.84;;;24.68;55.15
17254;BME280;32542;52.832;13.816;2023-06-22T03:28:03;101930.34;;;24.70;55.17
17254;BME280;32542;52.832;13.816;2023-06-22T03:31:06;101935.69;;;24.70;55.28
17254;BME280;32542;52.832;13.816;2023-06-22T03:34:14;101929.53;;;24.68;55.33
17254;BME280;32542;52.832;13.816;2023-06-22T03:37:17;101930.41;;;24.68;55.30
17254;BME280;32542;52.832;13.816;2023-06-22T03:40:21;101933.94;;;24.69;55.20
17254;BME280;32542;52.832;13.816;2023-06-22T03:43:25;101925.97;;;24.67;55.54
17254;BME280;32542;52.832;13.816;2023-06-22T03:46:27;101920.63;;;24.67;55.33
17254;BME280;32542;52.832;13.816;2023-06-22T03:49:32;101926.84;;;24.68;55.55
17254;BME280;32542;52.832;13.816;2023-06-22T03:52:35;101925.09;;;24.67;55.30
17254;BME280;32542;52.832;13.816;2023-06-22T03:55:42;101923.38;;;24.66;55.34
17254;BME280;32542;52.832;13.816;2023-06-22T03:58:50;101915.34;;;24.66;55.43
17254;BME280;32542;52.832;13.816;2023-06-22T04:01:53;101918.88;;;24.66;55.17
17254;BME280;32542;52.832;13.816;2023-06-22T04:04:57;101917.16;;;24.65;55.46
17254;BME280;32542;52.832;13.816;2023-06-22T04:08:05;101918.94;;;24.65;55.11
17254;BME280;32542;52.832;13.816;2023-06-22T04:11:07;101917.16;;;24.65;55.49
17254;BME280;32542;52.832;13.816;2023-06-22T04:14:10;101923.38;;;24.66;55.14
17254;BME280;32542;52.832;13.816;2023-06-22T04:17:13;101921.63;;;24.65;55.35
17254;BME280;32542;52.832;13.816;2023-06-22T04:20:18;101922.59;;;24.64;55.55
17254;BME280;32542;52.832;13.816;2023-06-22T04:23:20;101922.59;;;24.64;55.16
17254;BME280;32542;52.832;13.816;2023-06-22T04:26:23;101934.22;;;24.63;55.41
17254;BME280;32542;52.832;13.816;2023-06-22T04:29:26;101927.97;;;24.62;55.07
17254;BME280;32542;52.832;13.816;2023-06-22T04:32:31;101926.25;;;24.61;55.08
17254;BME280;32542;52.832;13.816;2023-06-22T04:35:35;101923.66;;;24.60;55.24
17254;BME280;32542;52.832;13.816;2023-06-22T04:38:38;101922.72;;;24.61;55.15
17254;BME280;32542;52.832;13.816;2023-06-22T04:41:41;101921.91;;;24.59;55.08
17254;BME280;32542;52.832;13.816;2023-06-22T04:44:44;101916.56;;;24.59;55.28
17254;BME280;32542;52.832;13.816;2023-06-22T04:47:47;101921.91;;;24.59;55.00
17254;BME280;32542;52.832;13.816;2023-06-22T04:50:52;101919.22;;;24.59;55.11
17254;BME280;32542;52.832;13.816;2023-06-22T04:53:55;101921.91;;;24.59;55.25
17254;BME280;32542;52.832;13.816;2023-06-22T04:57:03;101918.34;;;24.58;55.12
17254;BME280;32542;52.832;13.816;2023-06-22T05:00:12;101925.53;;;24.58;55.20
17254;BME280;32542;52.832;13.816;2023-06-22T05:03:18;101935.38;;;24.57;55.44
17254;BME280;32542;52.832;13.816;2023-06-22T05:06:23;101937.19;;;24.57;55.30
17254;BME280;32542;52.832;13.816;2023-06-22T05:09:27;101940.75;;;24.57;55.22
17254;BME280;32542;52.832;13.816;2023-06-22T05:12:30;101946.13;;;24.56;55.19
17254;BME280;32542;52.832;13.816;2023-06-22T05:15:33;101939.97;;;24.54;55.24
17254;BME280;32542;52.832;13.816;2023-06-22T05:18:41;101939.97;;;24.54;55.52
17254;BME280;32542;52.832;13.816;2023-06-22T05:21:46;101940.94;;;24.53;55.68
17254;BME280;32542;52.832;13.816;2023-06-22T05:24:49;101940.94;;;24.53;55.46
17254;BME280;32542;52.832;13.816;2023-06-22T05:27:52;101944.50;;;24.53;55.75
17254;BME280;32542;52.832;13.816;2023-06-22T05:30:55;101944.50;;;24.53;55.66
17254;BME280;32542;52.832;13.816;2023-06-22T05:33:58;101942.66;;;24.54;55.76
17254;BME280;32542;52.832;13.816;2023-06-22T05:37:03;101939.97;;;24.54;55.80
17254;BME280;32542;52.832;13.816;2023-06-22T05:40:08;101940.94;;;24.53;55.68
17254;BME280;32542;52.832;13.816;2023-06-22T05:43:11;101938.25;;;24.53;55.67
17254;BME280;32542;52.832;13.816;2023-06-22T05:46:14;101947.19;;;24.53;55.60
17254;BME280;32542;52.832;13.816;2023-06-22T05:49:17;101958.81;;;24.52;55.65
17254;BME280;32542;52.832;13.816;2023-06-22T05:52:21;101954.34;;;24.53;55.63
17254;BME280;32542;52.832;13.816;2023-06-22T05:55:24;101959.69;;;24.53;55.57
17254;BME280;32542;52.832;13.816;2023-06-22T05:58:27;101961.41;;;24.54;55.46
17254;BME280;32542;52.832;13.816;2023-06-22T06:01:30;101965.91;;;24.53;55.38
17254;BME280;32542;52.832;13.816;2023-06-22T06:04:37;101961.50;;;24.52;55.42
17254;BME280;32542;52.832;13.816;2023-06-22T06:07:42;101961.50;;;24.52;55.17
17254;BME280;32542;52.832;13.816;2023-06-22T06:10:45;101957.09;;;24.51;55.32
17254;BME280;32542;52.832;13.816;2023-06-22T06:13:48;101959.81;;;24.50;55.49
17254;BME280;32542;52.832;13.816;2023-06-22T06:16:51;101966.91;;;24.51;55.69
17254;BME280;32542;52.832;13.816;2023-06-22T06:19:54;101969.59;;;24.51;55.70
17254;BME280;32542;52.832;13.816;2023-06-22T06:22:58;101963.38;;;24.50;55.44
17254;BME280;32542;52.832;13.816;2023-06-22T06:26:01;101964.25;;;24.51;54.98
17254;BME280;32542;52.832;13.816;2023-06-22T06:29:07;101956.22;;;24.51;54.86
17254;BME280;32542;52.832;13.816;2023-06-22T06:32:10;101962.44;;;24.51;54.75
17254;BME280;32542;52.832;13.816;2023-06-22T06:35:14;101971.31;;;24.52;54.82
17254;BME280;32542;52.832;13.816;2023-06-22T06:38:19;101971.31;;;24.52;55.16
17254;BME280;32542;52.832;13.816;2023-06-22T06:41:22;101978.44;;;24.53;54.96
17254;BME280;32542;52.832;13.816;2023-06-22T06:44:25;101969.53;;;24.52;55.18
17254;BME280;32542;52.832;13.816;2023-06-22T06:47:29;101962.38;;;24.53;54.83
17254;BME280;32542;52.832;13.816;2023-06-22T06:50:32;101959.69;;;24.53;54.93
17254;BME280;32542;52.832;13.816;2023-06-22T06:53:38;101971.28;;;24.53;54.74
17254;BME280;32542;52.832;13.816;2023-06-22T06:56:44;101967.72;;;24.53;54.92
17254;BME280;32542;52.832;13.816;2023-06-22T06:59:49;101955.22;;;24.53;54.57
17254;BME280;32542;52.832;13.816;2023-06-22T07:02:52;101954.34;;;24.53;54.39
17254;BME280;32542;52.832;13.816;2023-06-22T07:05:55;101955.22;;;24.53;54.00
17254;BME280;32542;52.832;13.816;2023-06-22T07:09:00;101953.44;;;24.52;53.78
17254;BME280;32542;52.832;13.816;2023-06-22T07:12:03;101957.94;;;24.52;53.75
17254;BME280;32542;52.832;13.816;2023-06-22T07:15:08;101950.78;;;24.52;53.41
17254;BME280;32542;52.832;13.816;2023-06-22T07:18:11;101948.97;;;24.53;53.45
17254;BME280;32542;52.832;13.816;2023-06-22T07:21:14;101951.66;;;24.53;53.30
17254;BME280;32542;52.832;13.816;2023-06-22T07:24:19;101948.09;;;24.52;53.00
17254;BME280;32542;52.832;13.816;2023-06-22T07:27:22;101946.38;;;24.51;52.52
17254;BME280;32542;52.832;13.816;2023-06-22T07:30:25;101941.88;;;24.52;52.26
17254;BME280;32542;52.832;13.816;2023-06-22T07:33:29;101937.38;;;24.52;52.10
17254;BME280;32542;52.832;13.816;2023-06-22T07:36:31;101939.13;;;24.53;52.06
17254;BME280;32542;52.832;13.816;2023-06-22T07:39:37;101926.59;;;24.54;51.91
17254;BME280;32542;52.832;13.816;2023-06-22T07:42:40;101936.38;;;24.55;51.94
17254;BME280;32542;52.832;13.816;2023-06-22T07:45:48;101930.06;;;24.56;51.82
17254;BME280;32542;52.832;13.816;2023-06-22T07:48:53;101931.81;;;24.57;51.35
17254;BME280;32542;52.832;13.816;2023-06-22T07:51:57;101914.81;;;24.58;51.03
17254;BME280;32542;52.832;13.816;2023-06-22T07:55:01;101912.06;;;24.59;50.98
17254;BME280;32542;52.832;13.816;2023-06-22T07:58:05;101914.81;;;24.58;50.80
17254;BME280;32542;52.832;13.816;2023-06-22T08:01:07;101913.94;;;24.57;51.01
17254;BME280;32542;52.832;13.816;2023-06-22T08:04:11;101913.94;;;24.57;50.21
17254;BME280;32542;52.832;13.816;2023-06-22T08:07:14;101910.41;;;24.57;50.14
17254;BME280;32542;52.832;13.816;2023-06-22T08:10:19;101908.59;;;24.57;49.94
17254;BME280;32542;52.832;13.816;2023-06-22T08:13:22;101901.44;;;24.58;49.73
17254;BME280;32542;52.832;13.816;2023-06-22T08:16:25;101911.19;;;24.59;49.33
17254;BME280;32542;52.832;13.816;2023-06-22T08:19:28;101898.69;;;24.59;49.51
17254;BME280;32542;52.832;13.816;2023-06-22T08:22:30;101909.31;;;24.61;49.80
17254;BME280;32542;52.832;13.816;2023-06-22T08:25:36;101906.56;;;24.62;50.14
17254;BME280;32542;52.832;13.816;2023-06-22T08:28:39;101904.66;;;24.64;49.78
17254;BME280;32542;52.832;13.816;2023-06-22T08:31:42;101906.50;;;24.64;50.04
17254;BME280;32542;52.832;13.816;2023-06-22T08:34:49;101911.06;;;24.62;50.16
17254;BME280;32542;52.832;13.816;2023-06-22T08:37:52;101907.50;;;24.61;49.84
17254;BME280;32542;52.832;13.816;2023-06-22T08:40:57;101912.78;;;24.63;50.58
17254;BME280;32542;52.832;13.816;2023-06-22T08:44:00;101904.66;;;24.64;50.06
17254;BME280;32542;52.832;13.816;2023-06-22T08:47:03;101902.00;;;24.64;50.02
17254;BME280;32542;52.832;13.816;2023-06-22T08:50:07;101910.81;;;24.66;50.36
17254;BME280;32542;52.832;13.816;2023-06-22T08:53:10;101906.44;;;24.65;50.45
17254;BME280;32542;52.832;13.816;2023-06-22T08:56:14;101905.63;;;24.63;50.31
17254;BME280;32542;52.832;13.816;2023-06-22T08:59:17;101902.94;;;24.63;49.88
17254;BME280;32542;52.832;13.816;2023-06-22T09:02:20;101905.56;;;24.65;49.51
17254;BME280;32542;52.832;13.816;2023-06-22T09:05:23;101908.22;;;24.65;49.74
17254;BME280;32542;52.832;13.816;2023-06-22T09:08:27;101900.19;;;24.65;49.26
17254;BME280;32542;52.832;13.816;2023-06-22T09:11:31;101901.06;;;24.65;49.17
17254;BME280;32542;52.832;13.816;2023-06-22T09:14:34;101904.53;;;24.67;49.35
17254;BME280;32542;52.832;13.816;2023-06-22T09:17:37;101900.94;;;24.68;50.06
17254;BME280;32542;52.832;13.816;2023-06-22T09:20:41;101903.53;;;24.70;50.16
17254;BME280;32542;52.832;13.816;2023-06-22T09:23:44;101892.81;;;24.70;50.35
17254;BME280;32542;52.832;13.816;2023-06-22T09:26:53;101899.91;;;24.71;50.75
17254;BME280;32542;52.832;13.816;2023-06-22T09:29:56;101897.22;;;24.71;51.00
17254;BME280;32542;52.832;13.816;2023-06-22T09:33:00;101891.03;;;24.70;51.48
17254;BME280;32542;52.832;13.816;2023-06-22T09:36:04;101898.19;;;24.70;50.90
17254;BME280;32542;52.832;13.816;2023-06-22T09:39:08;101896.38;;;24.70;51.12
17254;BME280;32542;52.832;13.816;2023-06-22T09:42:13;101888.34;;;24.70;51.06
17254;BME280;32542;52.832;13.816;2023-06-22T09:45:16;101896.38;;;24.70;51.18
17254;BME280;32542;52.832;13.816;2023-06-22T09:48:18;101894.53;;;24.71;51.10
17254;BME280;32542;52.832;13.816;2023-06-22T09:51:22;101900.78;;;24.71;51.13
17254;BME280;32542;52.832;13.816;2023-06-22T09:54:25;101886.50;;;24.71;51.11
17254;BME280;32542;52.832;13.816;2023-06-22T09:57:30;101890.94;;;24.72;51.62
17254;BME280;32542;52.832;13.816;2023-06-22T10:00:33;101890.88;;;24.73;51.35
17254;BME280;32542;52.832;13.816;2023-06-22T10:03:36;101888.19;;;24.73;51.33
17254;BME280;32542;52.832;13.816;2023-06-22T10:06:40;101896.22;;;24.73;50.87
17254;BME280;32542;52.832;13.816;2023-06-22T10:09:43;101899.81;;;24.74;50.99
17254;BME280;32542;52.832;13.816;2023-06-22T10:12:54;101896.97;;;24.77;51.15
17254;BME280;32542;52.832;13.816;2023-06-22T10:15:58;101896.13;;;24.76;51.05
17254;BME280;32542;52.832;13.816;2023-06-22T10:19:01;101892.50;;;24.77;51.02
17254;BME280;32542;52.832;13.816;2023-06-22T10:22:04;101887.00;;;24.81;50.97
17254;BME280;32542;52.832;13.816;2023-06-22T10:25:08;101884.25;;;24.82;50.84
17254;BME280;32542;52.832;13.816;2023-06-22T10:28:12;101883.16;;;24.86;50.90
17254;BME280;32542;52.832;13.816;2023-06-22T10:31:15;101887.41;;;24.90;50.96
17254;BME280;32542;52.832;13.816;2023-06-22T10:34:18;101884.69;;;24.92;50.71
17254;BME280;32542;52.832;13.816;2023-06-22T10:37:21;101880.97;;;24.94;50.61
17254;BME280;32542;52.832;13.816;2023-06-22T10:40:24;101879.09;;;24.96;50.65
17254;BME280;32542;52.832;13.816;2023-06-22T10:43:28;101875.47;;;24.97;51.86
17254;BME280;32542;52.832;13.816;2023-06-22T10:46:31;101870.03;;;24.99;53.34
17254;BME280;32542;52.832;13.816;2023-06-22T10:49:34;101867.22;;;25.02;52.89
17254;BME280;32542;52.832;13.816;2023-06-22T10:52:38;101871.56;;;25.04;52.13
17254;BME280;32542;52.832;13.816;2023-06-22T10:55:41;101864.31;;;25.06;51.15
17254;BME280;32542;52.832;13.816;2023-06-22T10:58:59;101866.03;;;25.07;50.51
17254;BME280;32542;52.832;13.816;2023-06-22T11:02:03;101867.00;;;25.06;50.67
17254;BME280;32542;52.832;13.816;2023-06-22T11:05:07;101857.13;;;25.07;50.25
17254;BME280;32542;52.832;13.816;2023-06-22T11:08:10;101857.06;;;25.08;50.43
17254;BME280;32542;52.832;13.816;2023-06-22T11:11:13;101844.59;;;25.07;50.35
17254;BME280;32542;52.832;13.816;2023-06-22T11:14:17;101837.34;;;25.09;50.19
17254;BME280;32542;52.832;13.816;2023-06-22T11:17:20;101825.78;;;25.09;50.38
17254;BME280;32542;52.832;13.816;2023-06-22T11:20:23;101825.78;;;25.09;50.23
17254;BME280;32542;52.832;13.816;2023-06-22T11:23:26;101821.25;;;25.09;49.98
17254;BME280;32542;52.832;13.816;2023-06-22T11:26:29;101817.75;;;25.09;49.66
17254;BME280;32542;52.832;13.816;2023-06-22T11:29:34;101816.78;;;25.10;49.83
17254;BME280;32542;52.832;13.816;2023-06-22T11:32:39;101811.41;;;25.10;49.53
17254;BME280;32542;52.832;13.816;2023-06-22T11:35:42;101808.66;;;25.11;49.35
17254;BME280;32542;52.832;13.816;2023-06-22T11:38:45;101806.75;;;25.13;49.31
17254;BME280;32542;52.832;13.816;2023-06-22T11:41:48;101808.50;;;25.14;48.74
17254;BME280;32542;52.832;13.816;2023-06-22T11:44:52;101803.16;;;25.14;48.93
17254;BME280;32542;52.832;13.816;2023-06-22T11:47:57;101809.22;;;25.18;48.83
17254;BME280;32542;52.832;13.816;2023-06-22T11:51:00;101804.72;;;25.18;48.97
17254;BME280;32542;52.832;13.816;2023-06-22T11:54:04;101794.00;;;25.18;48.80
17254;BME280;32542;52.832;13.816;2023-06-22T11:57:07;101798.44;;;25.19;48.72
17254;BME280;32542;52.832;13.816;2023-06-22T12:00:12;101801.13;;;25.19;48.72
17254;BME280;32542;52.832;13.816;2023-06-22T12:03:19;101806.53;;;25.18;48.96
17254;BME280;32542;52.832;13.816;2023-06-22T12:06:23;101795.75;;;25.19;49.14
17254;BME280;32542;52.832;13.816;2023-06-22T12:09:26;101806.31;;;25.22;49.06
17254;BME280;32542;52.832;13.816;2023-06-22T12:12:29;101812.56;;;25.23;49.17
17254;BME280;32542;52.832;13.816;2023-06-22T12:15:33;101816.94;;;25.24;49.31
17254;BME280;32542;52.832;13.816;2023-06-22T12:18:36;101817.81;;;25.24;49.45
17254;BME280;32542;52.832;13.816;2023-06-22T12:21:39;101805.22;;;25.26;49.36
17254;BME280;32542;52.832;13.816;2023-06-22T12:24:43;101808.78;;;25.27;49.73
17254;BME280;32542;52.832;13.816;2023-06-22T12:27:45;101808.78;;;25.27;49.58
17254;BME280;32542;52.832;13.816;2023-06-22T12:30:50;101805.94;;;25.30;49.44
17254;BME280;32542;52.832;13.816;2023-06-22T12:33:53;101802.22;;;25.32;49.57
17254;BME280;32542;52.832;13.816;2023-06-22T12:36:56;101785.19;;;25.33;49.17
17254;BME280;32542;52.832;13.816;2023-06-22T12:39:59;101796.72;;;25.35;49.16
17254;BME280;32542;52.832;13.816;2023-06-22T12:43:01;101780.47;;;25.38;49.31
17254;BME280;32542;52.832;13.816;2023-06-22T12:46:06;101775.03;;;25.40;48.99
17254;BME280;32542;52.832;13.816;2023-06-22T12:49:09;101774.16;;;25.39;48.76
17254;BME280;32542;52.832;13.816;2023-06-22T12:52:11;101768.94;;;25.36;48.54
17254;BME280;32542;52.832;13.816;2023-06-22T12:55:14;101766.44;;;25.33;49.00
17254;BME280;32542;52.832;13.816;2023-06-22T12:58:17;101766.56;;;25.30;48.77
17254;BME280;32542;52.832;13.816;2023-06-22T13:01:22;101763.19;;;25.27;48.85
17254;BME280;32542;52.832;13.816;2023-06-22T13:04:25;101755.22;;;25.25;48.93
17254;BME280;32542;52.832;13.816;2023-06-22T13:07:28;101750.78;;;25.24;48.96
17254;BME280;32542;52.832;13.816;2023-06-22T13:10:31;101746.41;;;25.23;48.33
17254;BME280;32542;52.832;13.816;2023-06-22T13:13:34;101750.88;;;25.23;48.85
17254;BME280;32542;52.832;13.816;2023-06-22T13:16:38;101747.97;;;25.27;48.38
17254;BME280;32542;52.832;13.816;2023-06-22T13:19:42;101745.28;;;25.27;48.50
17254;BME280;32542;52.832;13.816;2023-06-22T13:22:44;101736.38;;;25.27;48.49
17254;BME280;32542;52.832;13.816;2023-06-22T13:25:47;101726.56;;;25.26;48.20
17254;BME280;32542;52.832;13.816;2023-06-22T13:28:50;101725.56;;;25.28;48.18
17254;BME280;32542;52.832;13.816;2023-06-22T13:31:54;101722.56;;;25.34;47.75
17254;BME280;32542;52.832;13.816;2023-06-22T13:34:58;101719.72;;;25.37;47.94
17254;BME280;32542;52.832;13.816;2023-06-22T13:38:01;101720.59;;;25.38;47.93
17254;BME280;32542;52.832;13.816;2023-06-22T13:41:04;101717.97;;;25.36;48.33
17254;BME280;32542;52.832;13.816;2023-06-22T13:44:07;101706.41;;;25.36;48.44
17254;BME280;32542;52.832;13.816;2023-06-22T13:47:11;101701.19;;;25.33;48.30
17254;BME280;32542;52.832;13.816;2023-06-22T13:50:14;101703.50;;;25.40;48.07
17254;BME280;32542;52.832;13.816;2023-06-22T13:53:17;101701.63;;;25.42;48.09
17254;BME280;32542;52.832;13.816;2023-06-22T13:56:20;101699.88;;;25.41;48.03
17254;BME280;32542;52.832;13.816;2023-06-22T13:59:23;101702.63;;;25.40;48.51
17254;BME280;32542;52.832;13.816;2023-06-22T14:02:30;101707.97;;;25.40;48.52
17254;BME280;32542;52.832;13.816;2023-06-22T14:05:32;101699.56;;;25.47;47.84
17254;BME280;32542;52.832;13.816;2023-06-22T14:08:36;101695.94;;;25.48;48.15
17254;BME280;32542;52.832;13.816;2023-06-22T14:11:42;101698.84;;;25.44;48.54
17254;BME280;32542;52.832;13.816;2023-06-22T14:14:45;101697.03;;;25.44;48.58
17254;BME280;32542;52.832;13.816;2023-06-22T14:17:50;101695.31;;;25.43;49.02
17254;BME280;32542;52.832;13.816;2023-06-22T14:20:52;101688.22;;;25.42;48.99
17254;BME280;32542;52.832;13.816;2023-06-22T14:23:55;101674.56;;;25.47;48.56
17254;BME280;32542;52.832;13.816;2023-06-22T14:26:58;101674.78;;;25.60;47.52
17254;BME280;32542;52.832;13.816;2023-06-22T14:30:05;101661.41;;;25.58;48.11
17254;BME280;32542;52.832;13.816;2023-06-22T14:33:10;101654.41;;;25.55;48.52
17254;BME280;32542;52.832;13.816;2023-06-22T14:36:13;101636.75;;;25.51;47.64
17254;BME280;32542;52.832;13.816;2023-06-22T14:39:21;101636.06;;;25.48;47.42
17254;BME280;32542;52.832;13.816;2023-06-22T14:42:24;101645.22;;;25.44;47.37
17254;BME280;32542;52.832;13.816;2023-06-22T14:45:28;101639.13;;;25.40;47.48
17254;BME280;32542;52.832;13.816;2023-06-22T14:48:32;101635.66;;;25.38;47.90
17254;BME280;32542;52.832;13.816;2023-06-22T14:51:36;101624.06;;;25.38;48.32
17254;BME280;32542;52.832;13.816;2023-06-22T14:54:39;101622.31;;;25.37;48.06
17254;BME280;32542;52.832;13.816;2023-06-22T14:57:42;101615.91;;;25.39;48.04
17254;BME280;32542;52.832;13.816;2023-06-22T15:00:45;101620.19;;;25.43;47.68
17254;BME280;32542;52.832;13.816;2023-06-22T15:03:49;101624.28;;;25.50;47.19
17254;BME280;32542;52.832;13.816;2023-06-22T15:06:52;101620.41;;;25.56;47.12
17254;BME280;32542;52.832;13.816;2023-06-22T15:09:55;101613.91;;;25.60;47.24
17254;BME280;32542;52.832;13.816;2023-06-22T15:12:58;101620.00;;;25.64;47.21
17254;BME280;32542;52.832;13.816;2023-06-22T15:16:01;101618.09;;;25.66;47.29
17254;BME280;32542;52.832;13.816;2023-06-22T15:19:06;101602.78;;;25.68;46.88
17254;BME280;32542;52.832;13.816;2023-06-22T15:22:09;101602.59;;;25.71;46.74
17254;BME280;32542;52.832;13.816;2023-06-22T15:25:12;101591.72;;;25.74;46.48
17254;BME280;32542;52.832;13.816;2023-06-22T15:28:15;101590.69;;;25.76;46.32
17254;BME280;32542;52.832;13.816;2023-06-22T15:31:18;101581.59;;;25.79;46.37
17254;BME280;32542;52.832;13.816;2023-06-22T15:34:22;101582.38;;;25.81;46.10
17254;BME280;32542;52.832;13.816;2023-06-22T15:37:25;101572.41;;;25.83;46.07
17254;BME280;32542;52.832;13.816;2023-06-22T15:40:28;101576.66;;;25.87;46.18
17254;BME280;32542;52.832;13.816;2023-06-22T15:43:31;101564.00;;;25.89;46.14
17254;BME280;32542;52.832;13.816;2023-06-22T15:46:34;101562.09;;;25.91;46.28
17254;BME280;32542;52.832;13.816;2023-06-22T15:49:38;101562.00;;;25.92;46.24